Terminal Aerodrome Forecast
Issued by NWS

Home | Current Version | Previous Version | Text Only | Print | Product List | Glossary On
Versions: 1 2 3 4 5 6 7 8 9 10 11 12 13 14
000
FTPA31 PHFO 222333
TAFHMK
TAF
PHMK 222333Z 2300/2324 06018G26KT P6SM FEW025 SCT040
     FM230500 04012G20KT P6SM VCSH SCT025 BKN040
     FM231900 05017G25KT P6SM FEW030 SCT040=

USA.gov is the U.S. government's official web portal to all federal, state and local government web resources and services.